Basel, Switzerland
Current Conditions -  °F | °C
As of 3:00 AM on Friday 21 Nov 2014 (Local Time) from LFSB Reporting Station
Moderate Fog Moderate Fog  
Wind Chill: 38°   Ceiling: Unl
Heat Index: 41°   Visibility: 0.4mi
Dew Point: 41°   Wind: 5mph
Humidity: 100%   Direction: 330°NNW
Pressure: 30.18"   Gusts: NA
Location:  47.57°N, 7.58°E
Report Text: LFSB 210200Z AUTO 33004KT 310V020 0650 0600 R15/1800NR33/1500D FG VV/// 05/05 Q1022
Loading
Personal Weather Stations






























Interactive Weather Map New forecast layout! Learn more

10-Day Weather Forecast

Advertisements
Track Severe Weather on mobile